createdAt,value
2023-02-27T06:42:32.820Z,100746.78
2023-02-27T06:47:34.937Z,100738.19
2023-02-27T06:52:38.541Z,100767.59
2023-02-27T06:57:40.629Z,100778.66
2023-02-27T07:02:42.763Z,100792.13
2023-02-27T07:07:44.857Z,100798.31
2023-02-27T07:12:46.939Z,100777.59
2023-02-27T07:17:49.014Z,100787.31
2023-02-27T07:22:51.081Z,100793.41
2023-02-27T07:27:53.196Z,100799.53
2023-02-27T07:32:55.266Z,100780.22
2023-02-27T07:37:57.320Z,100780.19
2023-02-27T07:42:59.924Z,100805.38
2023-02-27T07:48:02.095Z,100799.44
2023-02-27T07:53:05.454Z,100818.91
2023-02-27T07:58:07.520Z,100813.72
2023-02-27T08:03:10.359Z,100821.50
2023-02-27T08:08:12.469Z,100829.19
2023-02-27T08:13:16.716Z,100803.41
2023-02-27T08:18:18.831Z,100819.09
2023-02-27T08:23:20.919Z,100843.37
2023-02-27T08:28:23.031Z,100823.47
2023-02-27T08:33:25.381Z,100838.38
2023-02-27T08:38:27.516Z,100848.25
2023-02-27T08:43:29.599Z,100872.44
2023-02-27T08:48:31.700Z,100882.62
2023-02-27T08:53:33.754Z,100882.91
2023-02-27T08:58:36.011Z,100899.06
2023-02-27T09:03:38.112Z,100904.66
2023-02-27T09:08:40.196Z,100911.56
2023-02-27T09:13:42.399Z,100902.34
2023-02-27T09:18:44.625Z,100895.75
2023-02-27T09:23:46.868Z,100905.09
2023-02-27T09:28:49.633Z,100887.25
2023-02-27T09:33:51.731Z,100909.41
2023-02-27T09:38:54.061Z,100899.03
2023-02-27T10:02:00.932Z,100919.53
2023-02-27T10:07:12.394Z,100909.31
2023-02-27T10:12:27.328Z,100928.91
2023-02-27T10:17:35.444Z,100918.37
2023-02-27T10:22:43.200Z,100921.87
2023-02-27T10:27:50.200Z,100927.72
2023-02-27T10:32:57.320Z,100914.16
2023-02-27T10:38:03.079Z,100928.19
2023-02-27T10:43:06.502Z,100924.41
2023-02-27T10:48:09.131Z,100910.56
2023-02-27T10:53:23.421Z,100917.16
2023-02-27T10:58:28.597Z,100911.16
2023-02-27T11:03:38.668Z,100901.44
2023-02-27T11:08:43.909Z,100904.19
2023-02-27T11:13:46.001Z,100910.22
2023-02-27T11:18:50.206Z,100915.47
2023-02-27T11:23:58.309Z,100931.31
2023-02-27T11:29:18.901Z,100934.12
2023-02-27T11:34:26.942Z,100935.03
2023-02-27T11:39:31.113Z,100937.31
2023-02-27T11:44:50.351Z,100939.50
2023-02-27T11:50:16.824Z,100931.06
2023-02-27T11:55:27.861Z,100933.56
2023-02-27T12:00:37.808Z,100924.91
2023-02-27T12:06:13.361Z,100941.47
2023-02-27T12:11:29.291Z,100941.50
2023-02-27T12:16:40.555Z,100936.19
2023-02-27T12:21:54.254Z,100928.63
2023-02-27T12:27:11.691Z,100945.34
2023-02-27T12:32:36.737Z,100935.78
2023-02-27T12:37:39.207Z,100946.50
2023-02-27T12:43:11.837Z,100940.91
2023-02-27T12:48:57.849Z,100944.88
2023-02-27T12:54:12.181Z,100938.37
2023-02-27T12:59:46.241Z,100949.91
2023-02-27T13:05:09.430Z,100962.41
2023-02-27T13:10:31.393Z,100967.34
2023-02-27T13:15:42.724Z,100963.63
2023-02-27T13:20:51.271Z,100951.22
2023-02-27T13:25:56.782Z,100945.75
2023-02-27T13:31:12.691Z,100961.22
2023-02-27T13:36:24.740Z,100943.66
2023-02-27T13:41:36.099Z,100966.03
2023-02-27T13:46:38.348Z,100976.09
2023-02-27T13:51:43.524Z,100965.66
2023-02-27T13:56:48.312Z,100966.53
2023-02-27T14:02:03.319Z,100965.72
2023-02-27T14:07:15.425Z,100947.91
2023-02-27T14:12:44.432Z,100958.50
2023-02-27T14:17:54.622Z,100955.78
2023-02-27T14:23:17.129Z,100958.66
2023-02-27T14:28:32.375Z,100954.06
2023-02-27T14:33:46.281Z,100955.69
2023-02-27T14:38:50.588Z,100942.34
2023-02-27T14:43:56.785Z,100956.91
2023-02-27T14:49:20.050Z,100971.12
2023-02-27T14:54:28.002Z,100963.28
2023-02-27T14:59:41.800Z,100979.75
2023-02-27T15:04:45.658Z,100991.88
2023-02-27T15:09:49.209Z,100997.16
2023-02-27T15:14:55.227Z,101010.13
2023-02-27T15:19:59.525Z,101008.53
2023-02-27T15:25:04.610Z,101039.16
2023-02-27T15:30:07.833Z,101026.34
2023-02-27T15:35:19.733Z,101032.38
2023-02-27T15:40:30.429Z,101031.50
2023-02-27T15:45:35.729Z,101044.81
2023-02-27T15:50:38.374Z,101035.12
2023-02-27T15:55:49.873Z,101048.59
2023-02-27T16:01:02.238Z,101052.50
2023-02-27T16:06:30.582Z,101047.44
2023-02-27T16:11:35.682Z,101048.72
2023-02-27T16:16:38.955Z,101060.13
2023-02-27T16:22:27.320Z,101063.38
2023-02-27T16:27:31.835Z,101074.44
2023-02-27T16:32:42.143Z,101087.59
2023-02-27T16:37:46.067Z,101066.72
2023-02-27T16:42:48.530Z,101104.53
2023-02-27T16:47:53.748Z,101106.75
2023-02-27T16:52:56.214Z,101124.50
2023-02-27T16:57:58.297Z,101134.28
2023-02-27T17:03:01.154Z,101122.38
2023-02-27T17:08:03.350Z,101143.34
2023-02-27T17:13:05.455Z,101155.69
2023-02-27T17:18:09.337Z,101142.28
2023-02-27T17:23:14.293Z,101163.50
2023-02-27T17:28:16.533Z,101169.69
2023-02-27T17:33:18.633Z,101157.69
2023-02-27T17:38:21.378Z,101159.16
2023-02-27T17:43:23.562Z,101175.13
2023-02-27T17:48:25.773Z,101154.12
2023-02-27T17:53:27.837Z,101174.28
2023-02-27T17:58:30.149Z,101191.19
2023-02-27T18:03:33.167Z,101179.63
2023-02-27T18:08:35.724Z,101194.03
2023-02-27T18:13:38.902Z,101203.25
2023-02-27T18:18:42.585Z,101189.81
2023-02-27T18:23:44.963Z,101234.34
2023-02-27T18:28:48.893Z,101227.56
2023-02-27T18:33:51.435Z,101242.97
2023-02-27T18:38:53.544Z,101241.72
2023-02-27T18:43:55.699Z,101245.12
2023-02-27T18:48:58.312Z,101229.81
2023-02-27T18:54:00.852Z,101235.84
2023-02-27T18:59:05.284Z,101230.09
2023-02-27T19:04:09.567Z,101255.22
2023-02-27T19:09:16.125Z,101249.09
2023-02-27T19:14:18.343Z,101278.31
2023-02-27T19:19:20.523Z,101266.16
2023-02-27T19:24:23.038Z,101302.78
2023-02-27T19:29:25.140Z,101294.59
2023-02-27T19:34:27.367Z,101298.63
2023-02-27T19:39:29.490Z,101319.88
2023-02-27T19:44:31.587Z,101318.53
2023-02-27T19:49:33.709Z,101317.22
2023-02-27T19:54:35.871Z,101319.22
2023-02-27T19:59:39.369Z,101318.03
2023-02-27T20:04:41.513Z,101323.88
2023-02-27T20:09:43.725Z,101338.25
2023-02-27T20:14:45.815Z,101334.75
2023-02-27T20:19:47.906Z,101359.66
2023-02-27T20:24:50.006Z,101383.22
2023-02-27T20:29:55.118Z,101387.56
2023-02-27T20:34:57.245Z,101365.28
2023-02-27T20:39:59.454Z,101377.88
2023-02-27T20:45:01.540Z,101393.72
2023-02-27T20:50:03.688Z,101393.03
2023-02-27T20:55:06.245Z,101390.31
2023-02-27T21:00:12.556Z,101416.75
2023-02-27T21:05:14.826Z,101402.66
2023-02-27T21:10:17.238Z,101419.50
2023-02-27T21:15:19.348Z,101417.66
2023-02-27T21:20:22.653Z,101421.62
2023-02-27T21:25:25.562Z,101411.06
2023-02-27T21:30:30.445Z,101412.72
2023-02-27T21:35:32.803Z,101428.66
2023-02-27T21:40:35.142Z,101430.31
2023-02-27T21:45:41.532Z,101403.41
2023-02-27T21:50:44.005Z,101417.44
2023-02-27T21:55:46.104Z,101426.41
2023-02-27T22:00:48.941Z,101425.69
